Startpagina
METAR-TAF:

METAR-TAF

Vliegvelden :

Luchthaven Caïro Internationaal

Caïro, Egypte

breedte: 30-08N, lengte: 031-24E, hoogte: 64 m

Actueel weer

Dit bericht is 22 minuten geleden gemaakt, om 13:00 UTC
Wind 3 kt uit het noordnoordwesten
Temperatuur 25°C
Vochtigheid 41%
Druk 1017 hPa
Zicht: 6000 m

METAR: HECA 191300Z 34003KT 6000 NSC 25/11 Q1017

Tijdstip: 15:22 (13:22 UTC)

Verwachting

Dit bericht is 2 uur en het 22 minuten geleden gemaakt, om 11:00 UTC
Verwachting geldig van 19 om 12 UTC tot 20 om 18 UTC
Wind 6 kt uit het oostnoordoosten
Zicht: 6000 m
Tijdelijke
van 19 om 12 UTC tot 19 om 16 UTC
Wind 3 kt uit variabele richting
Zicht: 4000 m
Heiigheid

TAF: HECA 191100Z 1912/2018 07006KT 6000 NSC TEMPO 1912/1916 VRB03KT 4000 HZ

Waarnemingen en weersverwachtingen van meer dan 4000 vliegvelden (METAR en TAF).

De beschikbare stations zijn de gele en rode punten op de kaart.

Ga met uw muis naar het station om de naam te zien.

Klik dan om waarnemingen en weersverwachtingen te zien.

kaart wijzigen: klik op de groene knoppen met een zwart kruis om in te zoomen, op de groene knop met een streepje om uit te zoomen of op de groene pijlen voor aangrenzende kaarten.


METAR-TAF: